Terminal Aerodrome Forecast
Issued by NWS

Home | Current Version | Previous Version | Graphics & Text | Print | Product List | Glossary On
Versions: 1 2 3 4 5 6 7 8 9 10 11 12 13
000
FTUS45 KGGW 271732
TAFSDY
TAF
KSDY 271732Z 2718/2818 09006KT P6SM VCSH SCT060 BKN100
     FM280300 05007KT P6SM BKN090
     FM280600 05006KT P6SM BKN030
     FM280800 05007KT P6SM OVC017
     FM281100 07005KT P6SM OVC012
     FM281700 06005KT P6SM VCSH SCT020 BKN050=

USA.gov is the U.S. government's official web portal to all federal, state and local government web resources and services.